📊 Raw Sensor Data

Showing records 44476 to 44500 of 85,037 total

ID Distance (ft) Battery V Battery A Int Temp (°F) Int Humid (%) Ext Temp (°F) Solar V RSSI SNR Time Stamp
40574 16.2 3.95 0 78 41 73 5.10 -69 8 05/14/2025 11:45 AM
40573 16.2 3.96 0 75 41 72 5.10 -70 8 05/14/2025 11:15 AM
40572 16.2 3.95 0 74 41 72 5.10 -69 8 05/14/2025 11:00 AM
40571 16.2 3.95 0 73 41 70 5.10 -69 8 05/14/2025 10:45 AM
40570 16.2 4.07 0 71 41 71 5.10 -70 8 05/14/2025 10:30 AM
40569 16.2 3.95 0 71 40 68 5.10 -71 8 05/14/2025 10:15 AM
40568 16.2 3.96 0 71 40 68 5.10 -69 8 05/14/2025 10:00 AM
40567 16.2 3.95 0 70 40 69 5.10 -69 8 05/14/2025 09:45 AM
40566 16.2 3.95 0 68 40 68 5.10 -70 8 05/14/2025 09:30 AM
40565 16.1 3.96 0 66 40 71 5.10 -69 8 05/14/2025 09:15 AM
40564 16.2 3.95 0 64 40 64 5.10 -69 8 05/14/2025 09:00 AM
40563 16.2 3.95 0 62 40 65 5.10 -69 8 05/14/2025 08:45 AM
40562 16.1 3.95 0 60 41 61 5.10 -68 8 05/14/2025 08:30 AM
40561 16.1 3.95 0 58 41 60 5.10 -68 8 05/14/2025 08:15 AM
40560 16.1 3.95 5 56 40 56 5.10 -70 8 05/14/2025 08:00 AM
40559 16.0 3.95 0 55 41 56 5.10 -68 7 05/14/2025 07:45 AM
40558 16.0 4.08 46 53 40 55 4.50 -69 8 05/14/2025 07:30 AM
40557 16.0 3.99 25 52 40 54 4.50 -69 8 05/14/2025 07:15 AM
40556 16.0 4.00 5 51 40 54 4.50 -70 8 05/14/2025 07:00 AM
40555 15.9 3.97 5 49 40 52 4.60 -69 8 05/14/2025 06:45 AM
40554 15.9 3.89 0 47 40 51 4.50 -70 8 05/14/2025 06:30 AM
40553 15.8 3.94 0 46 41 49 4.50 -70 8 05/14/2025 06:15 AM
40552 15.9 3.86 -26 44 41 46 4.30 -69 9 05/14/2025 06:00 AM
40551 15.9 3.87 -5 44 42 47 1.00 -70 9 05/14/2025 05:45 AM
40550 15.9 3.94 -5 44 41 45 0.00 -71 8 05/14/2025 05:30 AM